sensor_id;sensor_type;location;lat;lon;timestamp;pressure;altitude;pressure_sealevel;temperature;humidity
35908;BME280;22003;50.320;8.054;2024-01-25T00:01:41;100756.88;;;7.66;84.11
35908;BME280;22003;50.320;8.054;2024-01-25T00:04:06;100748.06;;;7.67;84.01
35908;BME280;22003;50.320;8.054;2024-01-25T00:06:31;100750.22;;;7.59;84.11
35908;BME280;22003;50.320;8.054;2024-01-25T00:08:57;100751.47;;;7.69;84.23
35908;BME280;22003;50.320;8.054;2024-01-25T00:11:22;100731.97;;;7.54;84.87
35908;BME280;22003;50.320;8.054;2024-01-25T00:13:47;100743.25;;;7.58;84.91
35908;BME280;22003;50.320;8.054;2024-01-25T00:16:12;100741.50;;;7.22;85.18
35908;BME280;22003;50.320;8.054;2024-01-25T00:18:38;100655.88;;;6.95;85.91
35908;BME280;22003;50.320;8.054;2024-01-25T00:21:03;100739.41;;;7.29;86.14
35908;BME280;22003;50.320;8.054;2024-01-25T00:23:29;100735.72;;;7.33;86.23
35908;BME280;22003;50.320;8.054;2024-01-25T00:25:54;100735.44;;;7.37;85.92
35908;BME280;22003;50.320;8.054;2024-01-25T00:28:23;100730.06;;;7.22;86.33
35908;BME280;22003;50.320;8.054;2024-01-25T00:30:48;100733.84;;;7.35;86.51
35908;BME280;22003;50.320;8.054;2024-01-25T00:33:14;100737.03;;;7.41;86.63
35908;BME280;22003;50.320;8.054;2024-01-25T00:35:39;100735.75;;;7.31;86.08
35908;BME280;22003;50.320;8.054;2024-01-25T00:38:04;100738.34;;;7.14;86.75
35908;BME280;22003;50.320;8.054;2024-01-25T00:40:30;100738.56;;;7.09;86.73
35908;BME280;22003;50.320;8.054;2024-01-25T00:42:55;100713.97;;;6.92;86.40
35908;BME280;22003;50.320;8.054;2024-01-25T00:45:22;100737.75;;;7.26;86.65
35908;BME280;22003;50.320;8.054;2024-01-25T00:47:49;100759.25;;;7.36;86.09
35908;BME280;22003;50.320;8.054;2024-01-25T00:50:15;100759.69;;;7.46;85.85
35908;BME280;22003;50.320;8.054;2024-01-25T00:52:43;100761.06;;;7.35;85.75
35908;BME280;22003;50.320;8.054;2024-01-25T00:55:09;100759.91;;;7.41;85.86
35908;BME280;22003;50.320;8.054;2024-01-25T00:57:35;100757.72;;;7.13;85.97
35908;BME280;22003;50.320;8.054;2024-01-25T01:00:00;100755.47;;;7.05;86.62
35908;BME280;22003;50.320;8.054;2024-01-25T01:02:27;100764.94;;;6.91;87.92
35908;BME280;22003;50.320;8.054;2024-01-25T01:04:58;100767.84;;;7.22;86.80
35908;BME280;22003;50.320;8.054;2024-01-25T01:07:24;100764.69;;;7.33;86.65
35908;BME280;22003;50.320;8.054;2024-01-25T01:09:49;100765.38;;;7.36;86.58
35908;BME280;22003;50.320;8.054;2024-01-25T01:12:14;100759.69;;;7.46;86.42
35908;BME280;22003;50.320;8.054;2024-01-25T01:14:40;100766.78;;;7.44;85.88
35908;BME280;22003;50.320;8.054;2024-01-25T01:17:05;100772.81;;;7.28;87.02
35908;BME280;22003;50.320;8.054;2024-01-25T01:19:30;100783.25;;;7.66;86.08
35908;BME280;22003;50.320;8.054;2024-01-25T01:21:56;100781.19;;;7.55;85.87
35908;BME280;22003;50.320;8.054;2024-01-25T01:24:21;100782.34;;;7.50;85.81
35908;BME280;22003;50.320;8.054;2024-01-25T01:26:46;100779.91;;;7.45;86.21
35908;BME280;22003;50.320;8.054;2024-01-25T01:29:12;100779.41;;;7.56;86.08
35908;BME280;22003;50.320;8.054;2024-01-25T01:31:37;100791.44;;;7.43;86.38
35908;BME280;22003;50.320;8.054;2024-01-25T01:34:02;100788.50;;;7.49;85.72
35908;BME280;22003;50.320;8.054;2024-01-25T01:36:27;100783.84;;;7.36;86.41
35908;BME280;22003;50.320;8.054;2024-01-25T01:38:53;100794.09;;;7.79;86.27
35908;BME280;22003;50.320;8.054;2024-01-25T01:41:18;100721.44;;;7.01;85.97
35908;BME280;22003;50.320;8.054;2024-01-25T01:43:44;100780.72;;;7.28;86.78
35908;BME280;22003;50.320;8.054;2024-01-25T01:46:11;100784.75;;;7.72;86.14
35908;BME280;22003;50.320;8.054;2024-01-25T01:48:40;100801.00;;;7.45;86.05
35908;BME280;22003;50.320;8.054;2024-01-25T01:51:06;100792.75;;;7.70;85.48
35908;BME280;22003;50.320;8.054;2024-01-25T01:53:32;100794.69;;;7.66;85.89
35908;BME280;22003;50.320;8.054;2024-01-25T01:55:58;100811.22;;;7.70;86.20
35908;BME280;22003;50.320;8.054;2024-01-25T01:58:25;100813.22;;;7.65;86.05
35908;BME280;22003;50.320;8.054;2024-01-25T02:00:51;100803.78;;;7.78;85.85
35908;BME280;22003;50.320;8.054;2024-01-25T02:03:18;100784.88;;;7.51;85.71
35908;BME280;22003;50.320;8.054;2024-01-25T02:05:43;100747.03;;;7.16;86.43
35908;BME280;22003;50.320;8.054;2024-01-25T02:08:08;100778.41;;;7.22;86.63
35908;BME280;22003;50.320;8.054;2024-01-25T02:10:34;100793.34;;;7.58;86.46
35908;BME280;22003;50.320;8.054;2024-01-25T02:12:59;100792.28;;;7.62;86.71
35908;BME280;22003;50.320;8.054;2024-01-25T02:15:24;100792.66;;;7.72;86.42
35908;BME280;22003;50.320;8.054;2024-01-25T02:17:49;100809.97;;;7.77;86.23
35908;BME280;22003;50.320;8.054;2024-01-25T02:20:18;100811.59;;;7.44;86.99
35908;BME280;22003;50.320;8.054;2024-01-25T02:22:43;100820.06;;;7.69;86.90
35908;BME280;22003;50.320;8.054;2024-01-25T02:25:08;100807.81;;;7.68;86.94
35908;BME280;22003;50.320;8.054;2024-01-25T02:27:34;100798.94;;;7.52;87.30
35908;BME280;22003;50.320;8.054;2024-01-25T02:30:07;100807.22;;;7.44;87.94
35908;BME280;22003;50.320;8.054;2024-01-25T02:32:32;100825.25;;;7.71;87.34
35908;BME280;22003;50.320;8.054;2024-01-25T02:34:58;100817.88;;;7.77;87.30
35908;BME280;22003;50.320;8.054;2024-01-25T02:37:23;100808.66;;;7.68;87.46
35908;BME280;22003;50.320;8.054;2024-01-25T02:39:50;100815.16;;;7.61;87.35
35908;BME280;22003;50.320;8.054;2024-01-25T02:42:15;100804.28;;;7.50;87.40
35908;BME280;22003;50.320;8.054;2024-01-25T02:44:41;100814.03;;;7.48;87.71
35908;BME280;22003;50.320;8.054;2024-01-25T02:47:07;100820.03;;;7.52;87.74
35908;BME280;22003;50.320;8.054;2024-01-25T02:49:32;100817.97;;;7.21;87.99
35908;BME280;22003;50.320;8.054;2024-01-25T02:51:57;100800.28;;;7.41;88.31
35908;BME280;22003;50.320;8.054;2024-01-25T02:54:23;100802.81;;;7.26;88.34
35908;BME280;22003;50.320;8.054;2024-01-25T02:56:48;100807.66;;;7.16;88.84
35908;BME280;22003;50.320;8.054;2024-01-25T02:59:13;100807.22;;;7.25;89.38
35908;BME280;22003;50.320;8.054;2024-01-25T03:01:41;100761.88;;;7.00;88.99
35908;BME280;22003;50.320;8.054;2024-01-25T03:04:07;100813.72;;;7.18;88.66
35908;BME280;22003;50.320;8.054;2024-01-25T03:06:32;100811.00;;;7.20;89.07
35908;BME280;22003;50.320;8.054;2024-01-25T03:08:58;100804.03;;;7.00;89.55
35908;BME280;22003;50.320;8.054;2024-01-25T03:11:23;100815.16;;;7.06;89.95
35908;BME280;22003;50.320;8.054;2024-01-25T03:13:48;100819.69;;;7.03;89.87
35908;BME280;22003;50.320;8.054;2024-01-25T03:16:13;100821.84;;;6.95;89.54
35908;BME280;22003;50.320;8.054;2024-01-25T03:18:39;100816.13;;;7.04;90.04
35908;BME280;22003;50.320;8.054;2024-01-25T03:21:04;100815.56;;;6.97;90.33
35908;BME280;22003;50.320;8.054;2024-01-25T03:23:29;100734.75;;;6.60;89.94
35908;BME280;22003;50.320;8.054;2024-01-25T03:25:54;100818.00;;;7.02;89.85
35908;BME280;22003;50.320;8.054;2024-01-25T03:28:20;100817.28;;;6.59;90.24
35908;BME280;22003;50.320;8.054;2024-01-25T03:30:45;100754.75;;;6.25;90.82
35908;BME280;22003;50.320;8.054;2024-01-25T03:33:10;100830.63;;;6.75;91.07
35908;BME280;22003;50.320;8.054;2024-01-25T03:35:36;100834.91;;;6.77;91.54
35908;BME280;22003;50.320;8.054;2024-01-25T03:38:01;100831.16;;;6.83;91.27
35908;BME280;22003;50.320;8.054;2024-01-25T03:40:26;100828.53;;;6.83;90.83
35908;BME280;22003;50.320;8.054;2024-01-25T03:42:51;100830.38;;;7.00;90.63
35908;BME280;22003;50.320;8.054;2024-01-25T03:45:17;100831.94;;;7.04;90.87
35908;BME280;22003;50.320;8.054;2024-01-25T03:47:42;100844.06;;;7.08;90.44
35908;BME280;22003;50.320;8.054;2024-01-25T03:50:07;100832.66;;;6.88;90.54
35908;BME280;22003;50.320;8.054;2024-01-25T03:52:33;100833.28;;;6.94;90.65
35908;BME280;22003;50.320;8.054;2024-01-25T03:54:58;100839.91;;;7.02;90.72
35908;BME280;22003;50.320;8.054;2024-01-25T03:57:23;100850.34;;;7.05;90.24
35908;BME280;22003;50.320;8.054;2024-01-25T03:59:49;100852.25;;;7.02;90.27
35908;BME280;22003;50.320;8.054;2024-01-25T04:02:14;100849.53;;;6.84;90.13
35908;BME280;22003;50.320;8.054;2024-01-25T04:04:39;100854.59;;;7.08;90.60
35908;BME280;22003;50.320;8.054;2024-01-25T04:07:04;100858.56;;;6.98;89.83
35908;BME280;22003;50.320;8.054;2024-01-25T04:09:30;100856.59;;;7.03;90.14
35908;BME280;22003;50.320;8.054;2024-01-25T04:11:55;100851.13;;;6.68;90.38
35908;BME280;22003;50.320;8.054;2024-01-25T04:14:21;100858.69;;;6.76;91.43
35908;BME280;22003;50.320;8.054;2024-01-25T04:16:46;100853.56;;;6.73;91.66
35908;BME280;22003;50.320;8.054;2024-01-25T04:19:12;100846.84;;;6.66;91.42
35908;BME280;22003;50.320;8.054;2024-01-25T04:21:38;100854.03;;;6.42;91.23
35908;BME280;22003;50.320;8.054;2024-01-25T04:24:03;100863.25;;;6.72;91.69
35908;BME280;22003;50.320;8.054;2024-01-25T04:26:29;100861.84;;;6.64;91.36
35908;BME280;22003;50.320;8.054;2024-01-25T04:28:54;100856.13;;;6.54;91.48
35908;BME280;22003;50.320;8.054;2024-01-25T04:31:19;100867.38;;;6.78;91.54
35908;BME280;22003;50.320;8.054;2024-01-25T04:33:45;100857.25;;;6.69;91.70
35908;BME280;22003;50.320;8.054;2024-01-25T04:36:10;100874.50;;;6.55;91.83
35908;BME280;22003;50.320;8.054;2024-01-25T04:38:36;100879.47;;;6.82;92.06
35908;BME280;22003;50.320;8.054;2024-01-25T04:41:01;100882.06;;;7.02;91.31
35908;BME280;22003;50.320;8.054;2024-01-25T04:43:26;100879.53;;;6.80;91.04
35908;BME280;22003;50.320;8.054;2024-01-25T04:45:51;100883.94;;;6.61;92.30
35908;BME280;22003;50.320;8.054;2024-01-25T04:48:17;100886.84;;;6.94;91.83
35908;BME280;22003;50.320;8.054;2024-01-25T04:50:42;100893.84;;;7.14;91.08
35908;BME280;22003;50.320;8.054;2024-01-25T04:53:07;100885.66;;;7.20;90.47
35908;BME280;22003;50.320;8.054;2024-01-25T04:55:32;100893.91;;;7.12;90.29
35908;BME280;22003;50.320;8.054;2024-01-25T04:57:58;100899.31;;;7.09;90.07
35908;BME280;22003;50.320;8.054;2024-01-25T05:00:23;100900.03;;;7.13;89.89
35908;BME280;22003;50.320;8.054;2024-01-25T05:02:49;100910.72;;;7.10;90.01
35908;BME280;22003;50.320;8.054;2024-01-25T05:05:14;100906.03;;;7.17;89.63
35908;BME280;22003;50.320;8.054;2024-01-25T05:07:40;100916.34;;;7.21;88.92
35908;BME280;22003;50.320;8.054;2024-01-25T05:10:05;100925.94;;;7.03;89.25
35908;BME280;22003;50.320;8.054;2024-01-25T05:12:31;100827.50;;;6.67;89.16
35908;BME280;22003;50.320;8.054;2024-01-25T05:14:56;100927.38;;;7.10;89.01
35908;BME280;22003;50.320;8.054;2024-01-25T05:17:21;100932.50;;;6.95;89.23
35908;BME280;22003;50.320;8.054;2024-01-25T05:19:47;100924.81;;;7.09;89.71
35908;BME280;22003;50.320;8.054;2024-01-25T05:22:12;100928.09;;;7.14;89.59
35908;BME280;22003;50.320;8.054;2024-01-25T05:24:37;100934.97;;;6.98;90.10
35908;BME280;22003;50.320;8.054;2024-01-25T05:27:02;100923.50;;;6.99;90.81
35908;BME280;22003;50.320;8.054;2024-01-25T05:29:28;100934.69;;;7.04;90.95
35908;BME280;22003;50.320;8.054;2024-01-25T05:31:53;100933.16;;;7.00;90.76
35908;BME280;22003;50.320;8.054;2024-01-25T05:34:18;100934.69;;;7.04;90.89
35908;BME280;22003;50.320;8.054;2024-01-25T05:36:44;100929.19;;;6.90;91.04
35908;BME280;22003;50.320;8.054;2024-01-25T05:39:09;100873.97;;;6.47;90.79
35908;BME280;22003;50.320;8.054;2024-01-25T05:41:34;100934.09;;;6.78;91.13
35908;BME280;22003;50.320;8.054;2024-01-25T05:44:00;100924.06;;;6.66;91.20
35908;BME280;22003;50.320;8.054;2024-01-25T05:46:25;100883.00;;;6.42;91.21
35908;BME280;22003;50.320;8.054;2024-01-25T05:48:50;100939.22;;;6.61;91.11
35908;BME280;22003;50.320;8.054;2024-01-25T05:51:16;100944.06;;;6.70;91.64
35908;BME280;22003;50.320;8.054;2024-01-25T05:53:41;100946.63;;;6.72;90.83
35908;BME280;22003;50.320;8.054;2024-01-25T05:56:06;100949.28;;;6.51;91.84
35908;BME280;22003;50.320;8.054;2024-01-25T05:58:31;100952.91;;;6.27;90.74
35908;BME280;22003;50.320;8.054;2024-01-25T06:00:57;100963.41;;;6.06;92.32
35908;BME280;22003;50.320;8.054;2024-01-25T06:03:22;100967.81;;;6.28;92.55
35908;BME280;22003;50.320;8.054;2024-01-25T06:05:47;100970.38;;;6.07;93.35
35908;BME280;22003;50.320;8.054;2024-01-25T06:08:12;100915.56;;;5.97;94.05
35908;BME280;22003;50.320;8.054;2024-01-25T06:10:38;100958.59;;;6.38;93.71
35908;BME280;22003;50.320;8.054;2024-01-25T06:13:04;100955.41;;;6.52;92.41
35908;BME280;22003;50.320;8.054;2024-01-25T06:15:29;100944.28;;;6.45;92.29
35908;BME280;22003;50.320;8.054;2024-01-25T06:17:55;100941.00;;;5.96;92.87
35908;BME280;22003;50.320;8.054;2024-01-25T06:20:20;100955.28;;;5.89;93.14
35908;BME280;22003;50.320;8.054;2024-01-25T06:22:45;100949.84;;;5.94;94.00
35908;BME280;22003;50.320;8.054;2024-01-25T06:25:10;100949.09;;;5.68;94.10
35908;BME280;22003;50.320;8.054;2024-01-25T06:27:36;100954.06;;;5.52;96.01
35908;BME280;22003;50.320;8.054;2024-01-25T06:30:01;100963.38;;;5.38;97.06
35908;BME280;22003;50.320;8.054;2024-01-25T06:32:26;100958.44;;;5.05;97.42
35908;BME280;22003;50.320;8.054;2024-01-25T06:34:51;100968.22;;;5.01;99.05
35908;BME280;22003;50.320;8.054;2024-01-25T06:37:18;100971.88;;;5.21;99.68
35908;BME280;22003;50.320;8.054;2024-01-25T06:39:44;100979.28;;;5.10;100.00
35908;BME280;22003;50.320;8.054;2024-01-25T06:42:09;100966.44;;;5.02;99.64
35908;BME280;22003;50.320;8.054;2024-01-25T06:44:34;100974.00;;;5.11;100.00
35908;BME280;22003;50.320;8.054;2024-01-25T06:46:59;100976.78;;;5.07;100.00
35908;BME280;22003;50.320;8.054;2024-01-25T06:49:25;100973.41;;;5.03;100.00
35908;BME280;22003;50.320;8.054;2024-01-25T06:51:50;100971.31;;;4.88;99.54
35908;BME280;22003;50.320;8.054;2024-01-25T06:54:15;100975.44;;;4.70;100.00
35908;BME280;22003;50.320;8.054;2024-01-25T06:56:41;100981.50;;;4.72;100.00
35908;BME280;22003;50.320;8.054;2024-01-25T06:59:06;100966.03;;;4.89;100.00
35908;BME280;22003;50.320;8.054;2024-01-25T07:01:32;100977.06;;;4.74;99.90
35908;BME280;22003;50.320;8.054;2024-01-25T07:03:57;100982.88;;;4.31;100.00
35908;BME280;22003;50.320;8.054;2024-01-25T07:06:23;100980.00;;;4.10;100.00
35908;BME280;22003;50.320;8.054;2024-01-25T07:08:48;100979.34;;;4.04;100.00
35908;BME280;22003;50.320;8.054;2024-01-25T07:11:14;100981.91;;;4.05;100.00
35908;BME280;22003;50.320;8.054;2024-01-25T07:13:40;100976.31;;;3.89;100.00
35908;BME280;22003;50.320;8.054;2024-01-25T07:16:06;100966.97;;;3.81;100.00
35908;BME280;22003;50.320;8.054;2024-01-25T07:18:31;100984.00;;;3.95;100.00
35908;BME280;22003;50.320;8.054;2024-01-25T07:20:56;100983.94;;;4.25;100.00
35908;BME280;22003;50.320;8.054;2024-01-25T07:23:22;100977.66;;;4.03;100.00
35908;BME280;22003;50.320;8.054;2024-01-25T07:25:47;100979.78;;;4.18;100.00
35908;BME280;22003;50.320;8.054;2024-01-25T07:28:12;100979.69;;;4.47;100.00
35908;BME280;22003;50.320;8.054;2024-01-25T07:30:38;100980.50;;;4.23;100.00
35908;BME280;22003;50.320;8.054;2024-01-25T07:33:03;100984.59;;;4.32;100.00
35908;BME280;22003;50.320;8.054;2024-01-25T07:35:28;100983.16;;;4.21;100.00
35908;BME280;22003;50.320;8.054;2024-01-25T07:37:54;100984.13;;;4.19;100.00
35908;BME280;22003;50.320;8.054;2024-01-25T07:40:19;100984.91;;;4.22;100.00
35908;BME280;22003;50.320;8.054;2024-01-25T07:42:46;100914.34;;;3.59;100.00
35908;BME280;22003;50.320;8.054;2024-01-25T07:45:12;100999.34;;;4.08;100.00
35908;BME280;22003;50.320;8.054;2024-01-25T07:47:40;100943.09;;;3.90;100.00
35908;BME280;22003;50.320;8.054;2024-01-25T07:50:06;101009.31;;;4.24;100.00
35908;BME280;22003;50.320;8.054;2024-01-25T07:52:31;101009.03;;;4.06;100.00
35908;BME280;22003;50.320;8.054;2024-01-25T07:54:57;101006.25;;;4.10;100.00
35908;BME280;22003;50.320;8.054;2024-01-25T07:57:22;100972.56;;;4.24;100.00
35908;BME280;22003;50.320;8.054;2024-01-25T07:59:47;100997.63;;;4.61;100.00
35908;BME280;22003;50.320;8.054;2024-01-25T08:02:12;100999.53;;;4.56;100.00
35908;BME280;22003;50.320;8.054;2024-01-25T08:04:38;100993.06;;;4.91;100.00
35908;BME280;22003;50.320;8.054;2024-01-25T08:07:03;100980.38;;;5.04;100.00
35908;BME280;22003;50.320;8.054;2024-01-25T08:09:28;100979.50;;;5.28;100.00
35908;BME280;22003;50.320;8.054;2024-01-25T08:11:54;100980.69;;;5.20;100.00
35908;BME280;22003;50.320;8.054;2024-01-25T08:14:19;100974.66;;;5.16;100.00
35908;BME280;22003;50.320;8.054;2024-01-25T08:16:44;100988.63;;;5.18;100.00
35908;BME280;22003;50.320;8.054;2024-01-25T08:19:09;100987.66;;;5.21;100.00
35908;BME280;22003;50.320;8.054;2024-01-25T08:21:35;101002.34;;;5.01;100.00
35908;BME280;22003;50.320;8.054;2024-01-25T08:24:01;100993.94;;;4.92;100.00
35908;BME280;22003;50.320;8.054;2024-01-25T08:26:27;101004.84;;;5.06;100.00
35908;BME280;22003;50.320;8.054;2024-01-25T08:28:52;101005.19;;;5.44;100.00
35908;BME280;22003;50.320;8.054;2024-01-25T08:31:17;100994.34;;;5.29;100.00
35908;BME280;22003;50.320;8.054;2024-01-25T08:33:43;100993.91;;;5.42;100.00
35908;BME280;22003;50.320;8.054;2024-01-25T08:36:13;100994.75;;;5.42;100.00
35908;BME280;22003;50.320;8.054;2024-01-25T08:38:38;100994.59;;;5.47;100.00
35908;BME280;22003;50.320;8.054;2024-01-25T08:41:04;100997.84;;;5.53;100.00
35908;BME280;22003;50.320;8.054;2024-01-25T08:43:29;101011.78;;;6.02;100.00
35908;BME280;22003;50.320;8.054;2024-01-25T08:45:55;101014.75;;;5.93;100.00
35908;BME280;22003;50.320;8.054;2024-01-25T08:48:20;101011.97;;;5.98;100.00
35908;BME280;22003;50.320;8.054;2024-01-25T08:50:46;101032.25;;;6.18;100.00
35908;BME280;22003;50.320;8.054;2024-01-25T08:53:11;101035.06;;;6.35;100.00
35908;BME280;22003;50.320;8.054;2024-01-25T08:55:36;101040.94;;;6.42;100.00
35908;BME280;22003;50.320;8.054;2024-01-25T08:58:02;100994.91;;;6.30;100.00
35908;BME280;22003;50.320;8.054;2024-01-25T09:00:27;101031.56;;;6.56;100.00
35908;BME280;22003;50.320;8.054;2024-01-25T09:02:53;101002.97;;;6.47;100.00
35908;BME280;22003;50.320;8.054;2024-01-25T09:05:18;101015.72;;;6.78;100.00
35908;BME280;22003;50.320;8.054;2024-01-25T09:07:43;101020.59;;;6.87;100.00
35908;BME280;22003;50.320;8.054;2024-01-25T09:10:09;101027.34;;;6.95;99.27
35908;BME280;22003;50.320;8.054;2024-01-25T09:12:35;101023.63;;;7.19;98.16
35908;BME280;22003;50.320;8.054;2024-01-25T09:15:01;101028.16;;;7.36;94.92
35908;BME280;22003;50.320;8.054;2024-01-25T09:17:26;101013.56;;;7.29;94.44
35908;BME280;22003;50.320;8.054;2024-01-25T09:19:52;101015.25;;;7.30;94.67
35908;BME280;22003;50.320;8.054;2024-01-25T09:22:17;101011.63;;;7.32;94.70
35908;BME280;22003;50.320;8.054;2024-01-25T09:24:45;101020.44;;;7.31;95.28
35908;BME280;22003;50.320;8.054;2024-01-25T09:27:11;101024.47;;;7.40;94.15
35908;BME280;22003;50.320;8.054;2024-01-25T09:29:36;101020.63;;;7.47;93.79
35908;BME280;22003;50.320;8.054;2024-01-25T09:32:03;101018.38;;;7.58;92.54
35908;BME280;22003;50.320;8.054;2024-01-25T09:34:29;101023.53;;;7.61;92.48
35908;BME280;22003;50.320;8.054;2024-01-25T09:36:54;101019.66;;;7.87;90.56
35908;BME280;22003;50.320;8.054;2024-01-25T09:39:20;101035.50;;;7.87;90.07
35908;BME280;22003;50.320;8.054;2024-01-25T09:41:45;101031.06;;;8.44;88.66
35908;BME280;22003;50.320;8.054;2024-01-25T09:44:11;101018.38;;;8.15;85.84
35908;BME280;22003;50.320;8.054;2024-01-25T09:46:37;100960.41;;;7.94;85.35
35908;BME280;22003;50.320;8.054;2024-01-25T09:49:02;101020.38;;;8.10;86.25
35908;BME280;22003;50.320;8.054;2024-01-25T09:51:33;101032.06;;;8.23;84.93
35908;BME280;22003;50.320;8.054;2024-01-25T09:54:02;101035.75;;;8.57;83.95
35908;BME280;22003;50.320;8.054;2024-01-25T09:56:31;101038.03;;;8.27;84.12
35908;BME280;22003;50.320;8.054;2024-01-25T09:58:57;101031.16;;;8.60;83.30
35908;BME280;22003;50.320;8.054;2024-01-25T10:01:22;101024.72;;;8.30;84.06
35908;BME280;22003;50.320;8.054;2024-01-25T10:03:48;101021.28;;;8.09;83.98
35908;BME280;22003;50.320;8.054;2024-01-25T10:06:14;101027.78;;;8.20;85.38
35908;BME280;22003;50.320;8.054;2024-01-25T10:08:40;101022.38;;;8.24;83.15
35908;BME280;22003;50.320;8.054;2024-01-25T10:11:06;101024.75;;;8.11;84.12
35908;BME280;22003;50.320;8.054;2024-01-25T10:13:48;101027.34;;;8.30;84.74
35908;BME280;22003;50.320;8.054;2024-01-25T10:16:17;101034.34;;;8.50;84.07
35908;BME280;22003;50.320;8.054;2024-01-25T10:18:43;101043.69;;;8.74;81.59
35908;BME280;22003;50.320;8.054;2024-01-25T10:21:13;101048.25;;;8.70;81.40
35908;BME280;22003;50.320;8.054;2024-01-25T10:23:39;101048.81;;;8.77;80.24
35908;BME280;22003;50.320;8.054;2024-01-25T10:26:05;101068.13;;;8.96;81.82
35908;BME280;22003;50.320;8.054;2024-01-25T10:28:30;101050.94;;;9.05;80.28
35908;BME280;22003;50.320;8.054;2024-01-25T10:30:59;101045.09;;;8.81;79.50
35908;BME280;22003;50.320;8.054;2024-01-25T10:33:25;101038.59;;;8.88;80.57
35908;BME280;22003;50.320;8.054;2024-01-25T10:35:54;101047.19;;;8.92;80.33
35908;BME280;22003;50.320;8.054;2024-01-25T10:38:21;101036.84;;;9.39;77.96
35908;BME280;22003;50.320;8.054;2024-01-25T10:40:47;101036.38;;;9.14;78.23
35908;BME280;22003;50.320;8.054;2024-01-25T10:43:12;101035.53;;;9.13;77.45
35908;BME280;22003;50.320;8.054;2024-01-25T10:45:37;101031.88;;;9.16;76.73
35908;BME280;22003;50.320;8.054;2024-01-25T10:48:03;101035.22;;;9.19;76.81
35908;BME280;22003;50.320;8.054;2024-01-25T10:50:29;101017.88;;;9.14;77.32
35908;BME280;22003;50.320;8.054;2024-01-25T10:52:55;101051.63;;;9.26;76.26
35908;BME280;22003;50.320;8.054;2024-01-25T10:55:21;100973.13;;;8.76;76.42
35908;BME280;22003;50.320;8.054;2024-01-25T10:57:47;101043.69;;;9.09;75.92
35908;BME280;22003;50.320;8.054;2024-01-25T11:00:15;101046.66;;;9.03;75.88
35908;BME280;22003;50.320;8.054;2024-01-25T11:02:41;101025.41;;;9.04;75.36
35908;BME280;22003;50.320;8.054;2024-01-25T11:05:14;101025.38;;;8.88;75.32
35908;BME280;22003;50.320;8.054;2024-01-25T11:07:49;101016.19;;;8.95;75.77
35908;BME280;22003;50.320;8.054;2024-01-25T11:10:22;100989.59;;;8.81;74.83
35908;BME280;22003;50.320;8.054;2024-01-25T11:12:55;101011.13;;;9.08;75.03
35908;BME280;22003;50.320;8.054;2024-01-25T11:15:21;100997.97;;;9.24;73.89
35908;BME280;22003;50.320;8.054;2024-01-25T11:17:51;100997.34;;;9.19;73.63
35908;BME280;22003;50.320;8.054;2024-01-25T11:20:20;100989.94;;;9.25;72.65
35908;BME280;22003;50.320;8.054;2024-01-25T11:22:46;101007.38;;;9.30;72.69
35908;BME280;22003;50.320;8.054;2024-01-25T11:25:21;100996.03;;;9.43;73.04
35908;BME280;22003;50.320;8.054;2024-01-25T11:27:48;100991.44;;;9.47;72.63
35908;BME280;22003;50.320;8.054;2024-01-25T11:30:14;100969.09;;;9.52;71.81
35908;BME280;22003;50.320;8.054;2024-01-25T11:32:39;100984.97;;;9.52;71.77
35908;BME280;22003;50.320;8.054;2024-01-25T11:35:05;100976.88;;;9.56;71.56
35908;BME280;22003;50.320;8.054;2024-01-25T11:37:30;100981.22;;;9.57;71.62
35908;BME280;22003;50.320;8.054;2024-01-25T11:39:55;100972.97;;;9.63;71.15
35908;BME280;22003;50.320;8.054;2024-01-25T11:42:20;100976.69;;;9.59;70.93
35908;BME280;22003;50.320;8.054;2024-01-25T11:44:47;100966.03;;;9.44;71.76
35908;BME280;22003;50.320;8.054;2024-01-25T11:47:12;100971.75;;;9.52;71.69
35908;BME280;22003;50.320;8.054;2024-01-25T11:49:39;100969.81;;;9.72;70.03
35908;BME280;22003;50.320;8.054;2024-01-25T11:52:04;100967.50;;;10.13;69.42
35908;BME280;22003;50.320;8.054;2024-01-25T11:54:30;100924.63;;;9.43;70.08
35908;BME280;22003;50.320;8.054;2024-01-25T11:56:55;100968.53;;;9.63;71.53
35908;BME280;22003;50.320;8.054;2024-01-25T11:59:21;100964.50;;;9.56;70.73
35908;BME280;22003;50.320;8.054;2024-01-25T12:01:46;100960.72;;;9.60;71.19
35908;BME280;22003;50.320;8.054;2024-01-25T12:04:12;100949.66;;;9.85;68.34
35908;BME280;22003;50.320;8.054;2024-01-25T12:06:37;100949.31;;;10.07;68.14
35908;BME280;22003;50.320;8.054;2024-01-25T12:09:09;100956.31;;;10.40;68.28
35908;BME280;22003;50.320;8.054;2024-01-25T12:11:35;100945.25;;;10.47;67.55
35908;BME280;22003;50.320;8.054;2024-01-25T12:14:01;100936.69;;;10.58;64.96
35908;BME280;22003;50.320;8.054;2024-01-25T12:16:26;100938.63;;;10.54;64.96
35908;BME280;22003;50.320;8.054;2024-01-25T12:18:51;100933.41;;;10.39;64.79
35908;BME280;22003;50.320;8.054;2024-01-25T12:21:17;100930.13;;;10.49;65.26
35908;BME280;22003;50.320;8.054;2024-01-25T12:23:43;100934.84;;;10.44;64.91
35908;BME280;22003;50.320;8.054;2024-01-25T12:26:09;100926.69;;;10.92;65.22
35908;BME280;22003;50.320;8.054;2024-01-25T12:28:36;100923.38;;;10.74;64.89
35908;BME280;22003;50.320;8.054;2024-01-25T12:31:03;100930.00;;;10.67;65.41
35908;BME280;22003;50.320;8.054;2024-01-25T12:33:29;100923.41;;;10.58;64.74
35908;BME280;22003;50.320;8.054;2024-01-25T12:35:55;100912.94;;;10.71;64.49
35908;BME280;22003;50.320;8.054;2024-01-25T12:38:24;100873.00;;;10.88;63.18
35908;BME280;22003;50.320;8.054;2024-01-25T12:40:51;100905.78;;;11.01;62.33
35908;BME280;22003;50.320;8.054;2024-01-25T12:43:16;100905.03;;;11.14;62.32
35908;BME280;22003;50.320;8.054;2024-01-25T12:45:42;100898.59;;;11.03;62.33
35908;BME280;22003;50.320;8.054;2024-01-25T12:48:08;100907.88;;;11.25;62.51
35908;BME280;22003;50.320;8.054;2024-01-25T12:50:34;100907.13;;;11.23;62.52